Time;durP1;ratioP1;P1;durP2;ratioP2;P2;SDS_P1;SDS_P2;PMS_P1;PMS_P2;Temp;Humidity;BMP_temperature;BMP_pressure;BME280_temperature;BME280_humidity;BME280_pressure;Samples;Min_cycle;Max_cycle;Signal;HPM_P1;HPM_P2
2021/09/08 00:00:53;;;;;;;9.73;8.33;;;16.80;99.90;;;;;;5137213;22;20230;-65
2021/09/08 00:03:18;;;;;;;9.73;8.00;;;16.80;99.90;;;;;;5112567;28;20204;-64
2021/09/08 00:05:44;;;;;;;10.93;9.80;;;16.70;99.90;;;;;;5112602;28;20162;-64
2021/09/08 00:08:10;;;;;;;9.80;8.33;;;16.70;99.90;;;;;;5111876;28;20174;-64
2021/09/08 00:10:35;;;;;;;11.83;9.60;;;16.70;99.90;;;;;;5112294;28;20185;-65
2021/09/08 00:13:01;;;;;;;10.67;9.03;;;16.70;99.90;;;;;;5113008;28;20194;-68
2021/09/08 00:15:26;;;;;;;9.60;8.10;;;16.60;99.90;;;;;;5112515;28;20162;-66
2021/09/08 00:17:52;;;;;;;9.83;8.87;;;16.60;99.90;;;;;;5112383;28;20169;-65
2021/09/08 00:20:18;;;;;;;9.13;8.27;;;16.70;99.90;;;;;;5111705;28;20720;-65
2021/09/08 00:22:45;;;;;;;12.50;9.07;;;16.60;99.90;;;;;;5112281;28;20170;-65
2021/09/08 00:25:12;;;;;;;9.73;8.73;;;16.60;99.90;;;;;;5112323;28;20173;-65
2021/09/08 00:27:38;;;;;;;10.30;9.20;;;16.60;99.90;;;;;;5112270;28;20400;-65
2021/09/08 00:30:05;;;;;;;10.20;8.53;;;16.60;99.90;;;;;;5111163;28;20428;-65
2021/09/08 00:32:30;;;;;;;9.20;8.23;;;16.50;99.90;;;;;;5112263;28;21034;-65
2021/09/08 00:34:56;;;;;;;12.10;9.80;;;16.50;99.90;;;;;;5112207;28;20439;-65
2021/09/08 00:37:21;;;;;;;9.00;8.10;;;16.60;99.90;;;;;;5112224;28;20170;-65
2021/09/08 00:39:47;;;;;;;10.90;8.70;;;16.60;99.90;;;;;;5111223;28;20182;-65
2021/09/08 00:42:15;;;;;;;9.53;8.63;;;16.60;99.60;;;;;;5112183;28;20170;-65
2021/09/08 00:44:42;;;;;;;8.30;7.50;;;16.50;99.70;;;;;;5112205;28;20212;-65
2021/09/08 00:47:10;;;;;;;9.23;8.33;;;16.60;99.40;;;;;;5112101;28;20415;-65
2021/09/08 00:49:36;;;;;;;8.73;7.90;;;16.70;99.10;;;;;;5113532;22;20473;-65
2021/09/08 00:52:06;;;;;;;10.17;8.97;;;16.60;99.20;;;;;;5091727;28;20467;-65
2021/09/08 00:54:33;;;;;;;9.60;8.80;;;16.50;99.10;;;;;;5091710;28;20185;-65
2021/09/08 00:57:03;;;;;;;9.30;8.37;;;16.50;99.10;;;;;;5091615;28;20411;-65
2021/09/08 00:59:29;;;;;;;8.47;7.67;;;16.50;99.20;;;;;;5104892;22;22316;-65
2021/09/08 01:01:55;;;;;;;8.33;7.53;;;16.50;99.40;;;;;;5091617;28;20404;-65
2021/09/08 01:04:20;;;;;;;9.07;8.17;;;16.40;99.50;;;;;;5091528;28;20401;-65
2021/09/08 01:06:46;;;;;;;9.93;8.93;;;16.30;99.60;;;;;;5091556;28;20544;-65
2021/09/08 01:09:13;;;;;;;10.00;9.00;;;16.30;99.90;;;;;;5090624;28;20171;-65
2021/09/08 01:11:38;;;;;;;8.83;8.03;;;16.20;99.90;;;;;;5095713;28;20199;-65
2021/09/08 01:14:04;;;;;;;8.87;7.97;;;16.20;99.90;;;;;;5098195;28;20985;-67
2021/09/08 01:16:30;;;;;;;9.87;8.87;;;16.10;99.90;;;;;;5099733;28;20178;-67
2021/09/08 01:18:55;;;;;;;8.00;7.23;;;16.00;99.90;;;;;;5098460;28;20229;-66
2021/09/08 01:21:21;;;;;;;8.70;7.90;;;15.90;99.90;;;;;;5215791;22;20230;-67
2021/09/08 01:23:47;;;;;;;9.07;8.27;;;15.90;99.90;;;;;;5119518;28;20166;-67
2021/09/08 01:26:13;;;;;;;8.03;7.30;;;15.80;99.90;;;;;;5119666;28;20830;-66
2021/09/08 01:28:38;;;;;;;9.67;7.83;;;15.80;99.90;;;;;;5118946;28;20188;-66
2021/09/08 01:31:05;;;;;;;9.80;8.87;;;15.60;99.90;;;;;;5146868;22;20284;-66
2021/09/08 01:33:31;;;;;;;8.73;7.80;;;15.60;99.90;;;;;;5078395;28;20163;-66
2021/09/08 01:35:57;;;;;;;9.83;8.40;;;15.60;99.90;;;;;;5078364;28;20398;-66
2021/09/08 01:38:23;;;;;;;10.10;8.50;;;15.50;99.90;;;;;;5078383;28;20401;-66
2021/09/08 01:40:48;;;;;;;8.73;7.83;;;15.50;99.90;;;;;;5078636;28;20180;-66
2021/09/08 01:43:14;;;;;;;8.20;7.50;;;15.40;99.90;;;;;;5077570;28;20273;-66
2021/09/08 01:45:42;;;;;;;10.30;7.90;;;15.40;99.90;;;;;;5074439;28;20174;-64
2021/09/08 01:48:09;;;;;;;8.33;7.47;;;15.40;99.90;;;;;;5073629;28;20166;-67
2021/09/08 01:50:34;;;;;;;9.50;7.87;;;15.30;99.90;;;;;;5074288;28;20425;-67
2021/09/08 01:53:00;;;;;;;7.57;6.87;;;15.30;99.90;;;;;;5074326;28;20452;-64
2021/09/08 01:55:26;;;;;;;9.50;7.93;;;15.30;99.90;;;;;;5074356;28;20159;-64
2021/09/08 01:57:51;;;;;;;11.97;9.73;;;15.20;99.90;;;;;;5074329;28;20163;-64
2021/09/08 02:00:17;;;;;;;8.43;7.20;;;15.20;99.90;;;;;;5073406;28;20245;-65
2021/09/08 02:02:43;;;;;;;8.53;7.10;;;15.10;99.90;;;;;;5074111;28;20182;-67
2021/09/08 02:05:10;;;;;;;9.50;8.60;;;15.00;99.90;;;;;;5074141;28;20433;-64
2021/09/08 02:07:36;;;;;;;11.13;8.47;;;15.00;99.90;;;;;;5074168;28;20203;-65
2021/09/08 02:10:03;;;;;;;9.00;8.13;;;15.10;99.90;;;;;;5073182;28;20421;-65
2021/09/08 02:12:28;;;;;;;8.47;7.63;;;15.10;99.90;;;;;;5073926;28;20515;-64
2021/09/08 02:14:54;;;;;;;9.83;7.70;;;15.10;99.90;;;;;;5073992;28;20441;-64
2021/09/08 02:17:19;;;;;;;10.07;8.50;;;15.10;99.90;;;;;;5073860;28;20168;-67
2021/09/08 02:19:45;;;;;;;9.87;8.80;;;15.10;99.90;;;;;;5072989;28;20221;-64
2021/09/08 02:22:10;;;;;;;9.80;8.67;;;15.20;99.90;;;;;;5073373;28;20171;-64
2021/09/08 02:24:36;;;;;;;11.80;9.30;;;15.40;99.90;;;;;;5074081;28;20203;-64
2021/09/08 02:27:01;;;;;;;10.17;8.80;;;15.40;99.90;;;;;;5073813;28;20172;-67
2021/09/08 02:29:27;;;;;;;12.60;8.07;;;15.50;99.90;;;;;;5072535;28;20256;-64
2021/09/08 02:31:52;;;;;;;11.83;8.07;;;15.50;99.90;;;;;;5073542;28;20550;-64
2021/09/08 02:34:18;;;;;;;10.00;9.00;;;15.50;99.90;;;;;;5073621;28;20211;-64
2021/09/08 02:36:44;;;;;;;13.10;9.80;;;15.50;99.90;;;;;;5073580;28;20213;-64
2021/09/08 02:39:10;;;;;;;9.67;8.07;;;15.60;99.90;;;;;;5072662;28;20206;-64
2021/09/08 02:41:35;;;;;;;9.67;8.67;;;15.70;99.90;;;;;;5073401;28;20172;-64
2021/09/08 02:44:01;;;;;;;9.20;8.40;;;15.70;99.90;;;;;;5073525;28;20410;-64
2021/09/08 02:46:27;;;;;;;9.90;8.57;;;15.70;99.90;;;;;;5073283;28;20662;-64
2021/09/08 02:48:52;;;;;;;10.83;7.87;;;15.70;99.90;;;;;;5072526;28;20413;-65
2021/09/08 02:51:18;;;;;;;10.00;9.00;;;15.80;99.90;;;;;;5073033;28;20195;-64
2021/09/08 02:53:44;;;;;;;10.53;7.70;;;15.70;99.90;;;;;;5073257;28;20635;-64
2021/09/08 02:56:09;;;;;;;9.97;9.03;;;15.90;99.90;;;;;;5073222;28;20202;-64
2021/09/08 02:58:35;;;;;;;10.73;8.80;;;15.90;99.90;;;;;;5072349;28;20535;-64
2021/09/08 03:01:01;;;;;;;9.70;8.40;;;15.90;99.90;;;;;;5087811;22;20219;-66
2021/09/08 03:03:26;;;;;;;11.20;9.30;;;15.80;99.90;;;;;;5093267;28;20474;-64
2021/09/08 03:05:52;;;;;;;9.50;8.20;;;15.80;99.90;;;;;;5093247;28;20159;-64
2021/09/08 03:08:18;;;;;;;12.70;9.40;;;15.80;99.90;;;;;;5092427;28;20170;-64
2021/09/08 03:10:44;;;;;;;9.43;8.43;;;15.80;99.90;;;;;;5092939;28;20186;-63
2021/09/08 03:13:14;;;;;;;8.90;8.10;;;15.70;99.90;;;;;;5093181;28;20416;-64
2021/09/08 03:15:41;;;;;;;14.00;8.00;;;15.70;99.90;;;;;;5093672;28;20415;-65
2021/09/08 03:18:07;;;;;;;11.07;8.30;;;15.70;99.90;;;;;;5092325;28;20428;-65
2021/09/08 03:20:32;;;;;;;10.57;8.30;;;15.70;99.90;;;;;;5092814;28;20429;-65
2021/09/08 03:22:59;;;;;;;9.20;7.73;;;15.70;99.90;;;;;;5093046;28;20412;-65
2021/09/08 03:25:25;;;;;;;9.27;7.87;;;15.70;99.90;;;;;;5092900;28;20169;-65
2021/09/08 03:27:50;;;;;;;9.63;8.63;;;15.70;99.90;;;;;;5092851;28;20782;-65
2021/09/08 03:30:16;;;;;;;13.77;8.40;;;15.70;99.90;;;;;;5114727;22;20225;-65
2021/09/08 03:32:41;;;;;;;8.67;7.87;;;15.70;99.90;;;;;;5092091;28;20208;-65
2021/09/08 03:35:07;;;;;;;10.30;7.70;;;15.70;99.90;;;;;;5092733;28;20194;-65
2021/09/08 03:37:33;;;;;;;8.93;8.03;;;15.60;99.90;;;;;;5092567;28;20178;-65
2021/09/08 03:39:59;;;;;;;8.60;7.40;;;15.60;99.90;;;;;;5106206;22;21022;-65
2021/09/08 03:42:24;;;;;;;10.00;9.07;;;15.50;99.90;;;;;;5092497;28;20216;-65
2021/09/08 03:44:50;;;;;;;9.97;8.93;;;15.50;99.90;;;;;;5092503;28;20175;-65
2021/09/08 03:47:16;;;;;;;10.40;8.67;;;15.50;99.90;;;;;;5092805;28;20574;-66
2021/09/08 03:49:45;;;;;;;12.13;8.60;;;15.50;99.90;;;;;;5091384;28;20450;-65
2021/09/08 03:52:15;;;;;;;8.90;8.00;;;15.50;99.90;;;;;;5092384;28;20452;-65
2021/09/08 03:54:41;;;;;;;11.60;8.63;;;15.40;99.90;;;;;;5095267;28;20407;-67
2021/09/08 03:57:07;;;;;;;9.40;8.40;;;15.30;99.90;;;;;;5096239;28;20487;-66
2021/09/08 03:59:37;;;;;;;11.10;9.27;;;15.30;99.90;;;;;;5162910;22;20221;-66
2021/09/08 04:02:03;;;;;;;10.40;7.93;;;15.40;99.90;;;;;;5117466;28;20833;-66
2021/09/08 04:04:30;;;;;;;10.53;8.53;;;15.30;99.90;;;;;;5117255;28;20404;-66
2021/09/08 04:06:55;;;;;;;11.03;9.23;;;15.30;99.90;;;;;;5116949;28;20903;-66
2021/09/08 04:09:21;;;;;;;9.70;8.37;;;15.40;99.90;;;;;;5115276;28;20435;-66
2021/09/08 04:11:47;;;;;;;9.70;7.77;;;15.40;99.90;;;;;;5116614;28;20704;-65
2021/09/08 04:14:12;;;;;;;10.20;8.33;;;15.40;99.90;;;;;;5117409;28;20221;-67
2021/09/08 04:16:38;;;;;;;9.80;8.73;;;15.40;99.90;;;;;;5117560;28;20161;-67
2021/09/08 04:19:04;;;;;;;11.33;8.50;;;15.40;99.90;;;;;;5115681;28;20185;-66
2021/09/08 04:21:29;;;;;;;9.93;8.70;;;15.40;99.90;;;;;;5116881;28;20276;-66
2021/09/08 04:23:55;;;;;;;9.47;8.20;;;15.40;99.90;;;;;;5117338;28;20211;-66
2021/09/08 04:26:21;;;;;;;10.60;9.13;;;15.40;99.90;;;;;;5117586;28;20419;-67
2021/09/08 04:28:46;;;;;;;9.83;8.80;;;15.40;99.90;;;;;;5116110;28;20170;-66
2021/09/08 04:31:12;;;;;;;9.27;8.37;;;15.40;99.90;;;;;;5132030;22;20222;-66
2021/09/08 04:33:37;;;;;;;12.23;9.43;;;15.40;99.90;;;;;;5096867;28;20177;-65
2021/09/08 04:36:03;;;;;;;9.87;8.43;;;15.40;99.90;;;;;;5096977;28;20224;-66
2021/09/08 04:38:29;;;;;;;10.13;9.03;;;15.30;99.90;;;;;;5095912;28;20175;-66
2021/09/08 04:40:55;;;;;;;10.50;9.03;;;15.40;99.90;;;;;;5078490;28;20432;-66
2021/09/08 04:43:21;;;;;;;10.80;8.63;;;15.50;99.90;;;;;;5097481;28;20165;-66
2021/09/08 04:45:47;;;;;;;9.87;8.87;;;15.50;99.90;;;;;;5135456;22;20655;-62
2021/09/08 04:48:13;;;;;;;10.60;8.87;;;15.40;99.90;;;;;;5095138;28;20424;-62
2021/09/08 04:50:38;;;;;;;9.70;8.73;;;15.40;99.90;;;;;;5095985;28;20696;-62
2021/09/08 04:53:04;;;;;;;11.60;8.70;;;15.40;99.90;;;;;;5095695;28;20448;-62
2021/09/08 04:55:30;;;;;;;11.67;10.33;;;15.50;99.90;;;;;;5095651;28;20191;-62
2021/09/08 04:57:55;;;;;;;9.73;8.73;;;15.60;99.90;;;;;;5095699;28;20669;-61
2021/09/08 05:00:21;;;;;;;9.67;8.67;;;15.70;99.90;;;;;;5095202;28;20178;-62
2021/09/08 05:02:46;;;;;;;10.83;9.10;;;15.60;99.90;;;;;;5077434;28;20257;-62
2021/09/08 05:05:12;;;;;;;11.90;9.30;;;15.50;99.90;;;;;;5095562;28;20190;-63
2021/09/08 05:07:37;;;;;;;13.23;9.43;;;15.50;99.90;;;;;;5095646;28;20718;-62
2021/09/08 05:10:04;;;;;;;10.47;9.37;;;15.50;99.90;;;;;;5094644;28;20220;-62
2021/09/08 05:12:29;;;;;;;10.83;9.47;;;15.50;99.90;;;;;;5095356;28;20277;-62
2021/09/08 05:14:55;;;;;;;11.10;8.80;;;15.60;99.90;;;;;;5095349;28;20927;-62
2021/09/08 05:17:20;;;;;;;10.27;9.17;;;15.50;99.90;;;;;;5095357;28;20171;-62
2021/09/08 05:19:46;;;;;;;10.73;8.73;;;15.50;99.90;;;;;;5094547;28;20166;-62
2021/09/08 05:22:11;;;;;;;10.50;9.50;;;15.60;99.90;;;;;;5095350;28;20205;-62
2021/09/08 05:24:37;;;;;;;9.40;8.50;;;15.60;99.90;;;;;;5095057;28;20190;-62
2021/09/08 05:27:03;;;;;;;9.40;8.43;;;15.70;99.90;;;;;;5095175;28;20174;-62
2021/09/08 05:29:28;;;;;;;9.47;8.37;;;15.70;99.90;;;;;;5094430;28;20179;-62
2021/09/08 05:31:55;;;;;;;9.07;8.10;;;15.70;99.90;;;;;;5094952;28;20451;-62
2021/09/08 05:34:20;;;;;;;11.20;9.50;;;15.70;99.90;;;;;;5095080;28;20228;-62
2021/09/08 05:36:47;;;;;;;9.87;8.30;;;15.80;99.90;;;;;;5095003;28;20765;-62
2021/09/08 05:39:13;;;;;;;9.47;8.63;;;15.80;99.90;;;;;;5075958;28;20167;-62
2021/09/08 05:41:39;;;;;;;11.23;10.23;;;15.90;99.90;;;;;;5077060;28;20412;-62
2021/09/08 05:44:04;;;;;;;11.63;9.07;;;15.90;99.90;;;;;;5094688;28;20409;-62
2021/09/08 05:46:30;;;;;;;9.70;8.70;;;15.90;99.90;;;;;;5094779;28;20205;-62
2021/09/08 05:48:55;;;;;;;10.47;9.23;;;15.90;99.90;;;;;;5093936;28;20540;-62
2021/09/08 05:51:21;;;;;;;9.57;8.70;;;15.90;99.90;;;;;;5094614;28;20182;-62
2021/09/08 05:53:46;;;;;;;9.47;8.53;;;16.00;99.90;;;;;;5094520;28;20162;-62
2021/09/08 05:56:12;;;;;;;9.90;8.97;;;16.00;99.90;;;;;;5093670;28;20613;-62
2021/09/08 05:58:37;;;;;;;10.10;9.10;;;16.00;99.90;;;;;;5093775;28;20163;-62
2021/09/08 06:01:03;;;;;;;11.80;10.70;;;16.10;99.90;;;;;;5094494;28;20178;-63
2021/09/08 06:03:29;;;;;;;10.43;9.33;;;16.10;99.90;;;;;;5094491;28;20166;-62
2021/09/08 06:05:55;;;;;;;9.80;8.80;;;16.20;99.90;;;;;;5094575;28;20421;-61
2021/09/08 06:08:20;;;;;;;10.20;8.97;;;16.20;99.90;;;;;;5093495;28;20650;-61
2021/09/08 06:10:46;;;;;;;9.67;8.67;;;16.30;99.90;;;;;;5094339;28;20173;-61
2021/09/08 06:13:11;;;;;;;9.53;8.60;;;16.40;99.90;;;;;;5094209;28;20198;-61
2021/09/08 06:15:37;;;;;;;9.77;8.73;;;16.40;99.90;;;;;;5094173;28;20191;-61
2021/09/08 06:18:04;;;;;;;11.97;8.63;;;16.50;99.90;;;;;;5093521;28;20212;-61
2021/09/08 06:20:29;;;;;;;9.83;8.73;;;16.60;99.90;;;;;;5094125;28;20165;-61
2021/09/08 06:22:56;;;;;;;8.70;7.80;;;16.70;99.90;;;;;;5094013;28;20413;-61
2021/09/08 06:25:22;;;;;;;9.93;8.93;;;16.80;99.90;;;;;;5093979;28;20556;-61
2021/09/08 06:27:47;;;;;;;10.77;9.67;;;16.80;99.90;;;;;;5093824;28;20404;-61
2021/09/08 06:30:13;;;;;;;10.77;9.17;;;16.90;99.90;;;;;;5093201;28;20405;-61
2021/09/08 06:32:39;;;;;;;8.60;7.80;;;16.90;99.90;;;;;;5093857;28;20234;-61
2021/09/08 06:35:04;;;;;;;9.70;8.80;;;17.00;99.90;;;;;;5093874;28;20423;-61
2021/09/08 06:37:30;;;;;;;9.90;8.80;;;17.00;99.90;;;;;;5093758;28;20667;-61
2021/09/08 06:39:56;;;;;;;10.60;8.80;;;17.10;99.90;;;;;;5093014;28;20661;-61
2021/09/08 06:42:21;;;;;;;9.20;8.10;;;17.30;99.90;;;;;;5093851;28;20170;-61
2021/09/08 06:44:52;;;;;;;11.60;7.47;;;17.40;99.70;;;;;;5093540;28;20290;-61
2021/09/08 06:47:18;;;;;;;9.17;8.27;;;17.40;99.90;;;;;;5093720;28;20167;-61
2021/09/08 06:49:44;;;;;;;8.83;7.93;;;17.40;99.80;;;;;;5092811;28;20408;-61
2021/09/08 06:52:11;;;;;;;9.77;8.77;;;17.60;99.60;;;;;;5093354;28;20816;-61
2021/09/08 06:54:37;;;;;;;9.50;8.60;;;17.60;99.50;;;;;;5093621;28;20195;-61
2021/09/08 06:57:02;;;;;;;10.03;9.00;;;17.70;99.30;;;;;;5075312;28;20401;-61
2021/09/08 06:59:28;;;;;;;8.83;8.03;;;17.80;99.00;;;;;;5092801;28;20223;-61
2021/09/08 07:01:54;;;;;;;10.63;9.70;;;17.80;98.80;;;;;;5093404;28;20174;-61
2021/09/08 07:04:19;;;;;;;9.47;8.57;;;17.90;99.00;;;;;;5093186;28;20192;-61
2021/09/08 07:06:45;;;;;;;9.20;8.03;;;17.90;99.20;;;;;;5093166;28;20174;-61
2021/09/08 07:09:10;;;;;;;13.57;9.13;;;18.10;98.80;;;;;;5092451;28;20259;-61
2021/09/08 07:11:36;;;;;;;9.37;8.40;;;18.10;98.90;;;;;;5093122;28;20237;-61
2021/09/08 07:14:02;;;;;;;12.50;7.97;;;18.20;98.70;;;;;;5093252;28;20159;-62
2021/09/08 07:16:27;;;;;;;9.97;9.13;;;18.30;98.40;;;;;;5093053;28;20174;-61
2021/09/08 07:18:53;;;;;;;10.20;9.20;;;18.40;97.80;;;;;;5092263;28;20408;-61
2021/09/08 07:21:18;;;;;;;10.33;9.33;;;18.40;97.70;;;;;;5092929;28;20229;-61
2021/09/08 07:23:44;;;;;;;14.47;8.23;;;18.50;97.20;;;;;;5092846;28;20173;-62
2021/09/08 07:26:10;;;;;;;9.30;8.43;;;18.50;97.20;;;;;;5092811;28;20190;-62
2021/09/08 07:28:35;;;;;;;7.93;6.93;;;18.60;97.10;;;;;;5092112;28;20194;-61
2021/09/08 07:31:01;;;;;;;9.63;8.70;;;18.60;96.70;;;;;;5092731;28;20200;-62
2021/09/08 07:33:26;;;;;;;8.70;7.90;;;18.60;97.20;;;;;;5092833;28;20532;-62
2021/09/08 07:35:52;;;;;;;8.27;7.57;;;18.70;96.30;;;;;;5074339;28;20232;-62
2021/09/08 07:38:19;;;;;;;9.43;8.60;;;18.90;96.40;;;;;;5091868;28;20164;-61
2021/09/08 07:40:45;;;;;;;9.83;8.83;;;18.90;96.60;;;;;;5092704;28;20439;-61
2021/09/08 07:43:11;;;;;;;10.70;9.80;;;19.10;95.20;;;;;;5092613;28;20427;-62
2021/09/08 07:45:38;;;;;;;9.40;8.50;;;19.20;95.40;;;;;;5092443;28;20444;-61
2021/09/08 07:48:04;;;;;;;9.10;8.30;;;19.30;95.00;;;;;;5091774;28;20698;-61
2021/09/08 07:50:30;;;;;;;11.20;9.90;;;19.40;95.40;;;;;;5092322;28;20404;-62
2021/09/08 07:52:56;;;;;;;10.90;9.73;;;19.50;94.90;;;;;;5074138;28;20460;-61
2021/09/08 07:55:21;;;;;;;8.30;7.60;;;19.70;95.00;;;;;;5092269;28;20425;-61
2021/09/08 07:57:47;;;;;;;11.43;10.30;;;19.80;94.60;;;;;;5092339;28;20159;-61
2021/09/08 08:00:14;;;;;;;9.00;8.10;;;20.00;93.40;;;;;;5091201;28;20218;-61
2021/09/08 08:02:47;;;;;;;10.13;9.13;;;20.10;93.60;;;;;;5092306;28;20408;-61
2021/09/08 08:05:14;;;;;;;9.90;8.97;;;20.30;93.30;;;;;;5092104;28;20425;-62
2021/09/08 08:07:40;;;;;;;10.20;9.00;;;20.50;92.70;;;;;;5092158;28;20424;-62
2021/09/08 08:10:06;;;;;;;10.10;9.10;;;20.60;92.70;;;;;;5091453;28;20405;-62
2021/09/08 08:12:32;;;;;;;10.23;8.77;;;20.70;92.40;;;;;;5092169;28;20455;-62
2021/09/08 08:14:58;;;;;;;8.63;7.83;;;20.90;91.70;;;;;;5092054;28;20420;-62
2021/09/08 08:17:23;;;;;;;9.00;8.20;;;21.00;91.40;;;;;;5092102;28;20559;-62
2021/09/08 08:19:49;;;;;;;12.03;8.40;;;21.10;91.20;;;;;;5091198;28;20171;-62
2021/09/08 08:22:15;;;;;;;9.23;7.80;;;21.30;91.40;;;;;;5092046;28;20170;-62
2021/09/08 08:24:41;;;;;;;8.80;8.07;;;21.50;91.30;;;;;;5092185;28;20725;-62
2021/09/08 08:27:07;;;;;;;9.73;8.67;;;21.50;90.40;;;;;;5091980;28;20433;-62
2021/09/08 08:29:32;;;;;;;8.53;7.73;;;21.60;91.00;;;;;;5091225;28;20213;-62
2021/09/08 08:31:58;;;;;;;10.03;8.63;;;21.80;88.50;;;;;;5091899;28;20299;-62
2021/09/08 08:34:24;;;;;;;9.20;8.33;;;21.90;87.40;;;;;;5091718;28;20187;-62
2021/09/08 08:36:49;;;;;;;10.13;9.10;;;22.00;87.20;;;;;;5091849;28;20241;-62
2021/09/08 08:39:15;;;;;;;9.77;8.83;;;22.10;87.60;;;;;;5091095;28;20293;-62
2021/09/08 08:41:41;;;;;;;8.97;8.07;;;22.30;86.60;;;;;;5091901;28;20212;-62
2021/09/08 08:44:06;;;;;;;8.87;8.10;;;22.30;85.50;;;;;;5091669;28;20162;-62
2021/09/08 08:46:32;;;;;;;8.93;8.13;;;22.40;85.80;;;;;;5091784;28;20166;-62
2021/09/08 08:48:58;;;;;;;8.33;7.73;;;22.60;84.80;;;;;;5090988;28;20198;-62
2021/09/08 08:51:24;;;;;;;8.87;8.17;;;22.70;84.10;;;;;;5091733;28;20193;-62
2021/09/08 08:53:51;;;;;;;9.27;8.27;;;22.80;82.40;;;;;;5091916;28;20408;-62
2021/09/08 08:56:17;;;;;;;8.63;7.70;;;22.90;83.00;;;;;;5091674;28;20420;-62
2021/09/08 08:58:42;;;;;;;10.00;9.03;;;23.00;84.50;;;;;;5090939;28;20458;-62
2021/09/08 09:01:21;;;;;;;9.57;8.77;;;23.20;81.60;;;;;;5091712;28;20167;-62
2021/09/08 09:04:06;;;;;;;9.90;8.03;;;23.30;83.20;;;;;;5091626;28;20637;-62
2021/09/08 09:06:33;;;;;;;10.20;9.17;;;23.40;81.40;;;;;;5091605;28;20397;-62
2021/09/08 09:09:14;;;;;;;7.80;7.07;;;23.60;80.60;;;;;;5090854;28;20403;-62
2021/09/08 09:11:41;;;;;;;7.70;7.10;;;23.80;82.90;;;;;;5091472;28;21018;-62
2021/09/08 09:14:09;;;;;;;8.20;7.50;;;23.80;79.10;;;;;;5091453;28;20405;-62
2021/09/08 09:16:35;;;;;;;8.97;8.03;;;23.90;80.60;;;;;;5091465;28;20396;-62
2021/09/08 09:19:02;;;;;;;9.53;8.63;;;24.20;82.30;;;;;;5090686;28;20392;-62
2021/09/08 09:21:28;;;;;;;9.23;8.53;;;24.30;78.30;;;;;;5091492;28;20504;-62
2021/09/08 09:23:57;;;;;;;8.40;7.77;;;24.50;80.00;;;;;;5091460;28;20487;-62
2021/09/08 09:26:37;;;;;;;9.60;8.73;;;24.70;77.00;;;;;;5091334;28;20208;-62
2021/09/08 09:29:09;;;;;;;8.27;7.40;;;24.80;75.70;;;;;;5090775;28;20396;-62
2021/09/08 09:31:56;;;;;;;9.20;8.40;;;24.90;77.20;;;;;;5093830;28;20447;-62
2021/09/08 09:34:23;;;;;;;8.20;7.50;;;24.90;76.70;;;;;;5094895;28;20416;-62
2021/09/08 09:36:56;;;;;;;8.83;7.97;;;25.00;74.10;;;;;;5094968;28;20770;-62
2021/09/08 09:39:27;;;;;;;10.60;8.27;;;25.10;74.60;;;;;;5094222;28;20436;-62
2021/09/08 09:41:53;;;;;;;7.90;7.07;;;25.20;74.90;;;;;;5094927;28;20401;-62
2021/09/08 09:44:18;;;;;;;9.10;8.30;;;25.30;76.40;;;;;;5094599;28;20400;-62
2021/09/08 09:46:46;;;;;;;10.30;9.00;;;25.60;74.60;;;;;;5094844;28;20236;-62
2021/09/08 09:49:13;;;;;;;9.87;8.93;;;25.70;72.70;;;;;;5093874;28;20167;-62
2021/09/08 09:51:39;;;;;;;8.80;8.10;;;25.90;71.40;;;;;;5094648;28;20828;-62
2021/09/08 09:54:05;;;;;;;7.63;6.90;;;25.80;72.30;;;;;;5094536;28;20401;-62
2021/09/08 09:56:31;;;;;;;8.67;8.03;;;26.10;72.10;;;;;;5094596;28;20442;-62
2021/09/08 09:58:57;;;;;;;8.80;8.10;;;26.10;69.90;;;;;;5093811;28;20167;-63
2021/09/08 10:01:22;;;;;;;8.10;7.40;;;26.20;70.20;;;;;;5094573;28;20175;-62
2021/09/08 10:03:48;;;;;;;8.63;7.90;;;26.20;70.90;;;;;;5094384;28;20405;-62
2021/09/08 10:06:15;;;;;;;8.57;7.73;;;26.50;70.80;;;;;;5094394;28;20588;-62
2021/09/08 10:08:46;;;;;;;9.40;8.50;;;27.00;72.80;;;;;;5075509;28;20174;-62
2021/09/08 10:11:14;;;;;;;8.50;7.70;;;27.20;67.40;;;;;;5094391;28;20409;-62
2021/09/08 10:13:50;;;;;;;10.33;8.83;;;27.20;67.50;;;;;;5094376;28;20850;-63
2021/09/08 10:16:16;;;;;;;8.20;7.50;;;27.10;66.30;;;;;;5094174;28;20801;-63
2021/09/08 10:18:42;;;;;;;9.53;8.70;;;27.00;65.90;;;;;;5093609;28;20401;-63
2021/09/08 10:21:18;;;;;;;9.00;8.13;;;27.20;68.60;;;;;;5094405;28;20166;-63
2021/09/08 10:23:53;;;;;;;8.47;7.67;;;27.30;67.10;;;;;;5094493;28;20404;-63
2021/09/08 10:26:19;;;;;;;8.87;8.07;;;27.70;67.90;;;;;;5094042;28;20498;-63
2021/09/08 10:28:46;;;;;;;8.30;7.50;;;28.30;71.60;;;;;;5093246;28;20397;-63
2021/09/08 10:31:14;;;;;;;8.13;7.43;;;28.60;68.40;;;;;;5093818;28;20432;-63
2021/09/08 10:33:41;;;;;;;7.33;6.73;;;28.70;71.20;;;;;;5093858;28;20405;-63
2021/09/08 10:36:14;;;;;;;9.07;8.27;;;29.00;66.70;;;;;;5093799;28;20427;-63
2021/09/08 10:38:40;;;;;;;9.00;8.20;;;28.90;64.50;;;;;;5093089;28;20404;-63
2021/09/08 10:41:08;;;;;;;10.30;9.00;;;29.30;72.60;;;;;;5093498;28;20408;-63
2021/09/08 10:43:36;;;;;;;8.70;7.90;;;29.20;61.30;;;;;;5093731;28;20393;-63
2021/09/08 10:46:04;;;;;;;8.30;7.17;;;29.00;61.40;;;;;;5162055;22;20490;-66
2021/09/08 10:48:41;;;;;;;8.17;7.43;;;28.90;62.50;;;;;;5113233;28;20776;-66
2021/09/08 10:51:32;;;;;;;8.83;7.97;;;28.80;62.40;;;;;;5113982;28;20395;-66
2021/09/08 10:54:05;;;;;;;8.10;7.30;;;28.40;63.10;;;;;;5107974;28;20495;-68
2021/09/08 10:56:41;;;;;;;9.30;7.27;;;28.70;62.90;;;;;;5113863;28;20503;-68
2021/09/08 10:59:07;;;;;;;7.53;6.93;;;29.00;62.80;;;;;;5113243;28;20760;-67
2021/09/08 11:01:33;;;;;;;7.00;6.30;;;29.20;63.90;;;;;;5113747;28;20453;-67
2021/09/08 11:03:58;;;;;;;8.80;8.10;;;29.00;61.70;;;;;;5113807;28;20544;-66
2021/09/08 11:06:46;;;;;;;7.10;6.57;;;29.40;64.30;;;;;;5113581;28;20197;-66
2021/09/08 11:09:13;;;;;;;7.70;7.10;;;29.50;59.80;;;;;;5113056;28;20174;-66
2021/09/08 11:11:58;;;;;;;7.87;7.13;;;29.60;62.50;;;;;;5113450;28;20539;-67
2021/09/08 11:14:50;;;;;;;8.60;7.70;;;29.80;59.70;;;;;;5113497;28;20898;-66
2021/09/08 11:17:19;;;;;;;7.23;6.73;;;29.90;58.90;;;;;;5113441;28;20921;-67
2021/09/08 11:19:50;;;;;;;8.27;7.53;;;29.90;59.80;;;;;;5112650;28;20741;-67
2021/09/08 11:22:16;;;;;;;9.20;8.40;;;30.10;60.70;;;;;;5113361;28;20917;-66
2021/09/08 11:24:42;;;;;;;10.20;9.30;;;30.00;58.40;;;;;;5113383;28;20914;-67
2021/09/08 11:27:10;;;;;;;8.87;8.00;;;30.00;60.00;;;;;;5113133;28;20465;-67
2021/09/08 11:29:36;;;;;;;12.50;8.87;;;30.20;61.50;;;;;;5112461;28;20633;-66
2021/09/08 11:32:02;;;;;;;7.20;6.60;;;30.30;59.00;;;;;;5113209;28;20504;-67
2021/09/08 11:34:29;;;;;;;8.07;7.47;;;30.60;56.60;;;;;;5113029;28;20170;-66
2021/09/08 11:36:56;;;;;;;8.57;7.83;;;30.90;64.30;;;;;;5113098;28;20411;-67
2021/09/08 11:39:23;;;;;;;7.97;7.37;;;31.30;56.70;;;;;;5112270;28;20414;-67
2021/09/08 11:42:08;;;;;;;7.60;6.90;;;31.80;59.20;;;;;;5112946;28;20392;-66
2021/09/08 11:44:34;;;;;;;9.00;7.47;;;31.80;55.60;;;;;;5112883;28;20452;-66
2021/09/08 11:47:00;;;;;;;8.17;7.57;;;32.50;58.70;;;;;;5112940;28;20404;-67
2021/09/08 11:49:25;;;;;;;9.23;8.43;;;32.50;56.20;;;;;;5112184;28;20728;-67
2021/09/08 11:51:51;;;;;;;8.90;8.30;;;32.10;55.20;;;;;;5112832;28;20665;-67
2021/09/08 11:54:22;;;;;;;8.27;7.67;;;31.90;55.60;;;;;;5112140;28;20560;-67
2021/09/08 11:56:58;;;;;;;8.17;7.57;;;32.00;56.50;;;;;;5112806;28;20169;-69
2021/09/08 11:59:33;;;;;;;8.20;7.43;;;32.00;57.40;;;;;;5111963;28;20750;-67
2021/09/08 12:01:59;;;;;;;9.23;8.37;;;32.20;55.40;;;;;;5112713;28;20391;-67
2021/09/08 12:04:26;;;;;;;9.07;8.23;;;32.30;53.90;;;;;;5112543;28;20495;-67
2021/09/08 12:07:02;;;;;;;7.87;7.37;;;32.10;55.10;;;;;;5112686;28;20407;-67
2021/09/08 12:09:30;;;;;;;8.67;7.63;;;32.60;54.30;;;;;;5111818;28;20929;-67
2021/09/08 12:12:00;;;;;;;9.20;8.30;;;33.20;56.60;;;;;;5112399;28;20466;-67
2021/09/08 12:14:33;;;;;;;8.87;8.00;;;33.30;53.90;;;;;;5112311;28;20948;-68
2021/09/08 12:17:13;;;;;;;7.77;7.07;;;33.40;55.30;;;;;;5112522;28;20399;-67
2021/09/08 12:19:47;;;;;;;10.20;9.27;;;33.70;54.40;;;;;;5111699;28;20781;-69
2021/09/08 12:22:23;;;;;;;8.93;8.13;;;33.90;55.50;;;;;;5112426;28;20403;-67
2021/09/08 12:25:00;;;;;;;8.13;7.50;;;34.10;55.40;;;;;;5112365;28;20888;-67
2021/09/08 12:27:26;;;;;;;8.60;7.47;;;34.60;54.30;;;;;;5112355;28;20407;-67
2021/09/08 12:29:57;;;;;;;9.17;8.47;;;34.90;50.40;;;;;;5111482;28;20472;-69
2021/09/08 12:32:41;;;;;;;7.83;7.33;;;34.50;53.20;;;;;;5112307;28;20205;-67
2021/09/08 12:35:07;;;;;;;9.20;8.50;;;34.20;51.90;;;;;;5112266;28;20417;-67
2021/09/08 12:37:33;;;;;;;8.00;7.40;;;33.90;49.90;;;;;;5112399;28;20815;-67
2021/09/08 12:39:58;;;;;;;6.93;6.40;;;33.60;50.50;;;;;;5111477;28;20404;-67
2021/09/08 12:42:26;;;;;;;8.10;7.40;;;33.60;54.10;;;;;;5112412;28;20227;-68